sensor_id;sensor_type;location;lat;lon;timestamp;P1;durP1;ratioP1;P2;durP2;ratioP2
13083;SDS011;6608;48.790;9.198;2022-07-10T00:00:40;172.20;;;68.50;;
13083;SDS011;6608;48.790;9.198;2022-07-10T00:03:07;175.27;;;67.87;;
13083;SDS011;6608;48.790;9.198;2022-07-10T00:05:33;172.17;;;68.67;;
13083;SDS011;6608;48.790;9.198;2022-07-10T00:08:00;171.63;;;68.67;;
13083;SDS011;6608;48.790;9.198;2022-07-10T00:10:28;170.20;;;67.77;;
13083;SDS011;6608;48.790;9.198;2022-07-10T00:12:55;172.27;;;67.77;;
13083;SDS011;6608;48.790;9.198;2022-07-10T00:15:22;172.53;;;68.83;;
13083;SDS011;6608;48.790;9.198;2022-07-10T00:17:49;176.93;;;68.03;;
13083;SDS011;6608;48.790;9.198;2022-07-10T00:20:16;174.67;;;69.83;;
13083;SDS011;6608;48.790;9.198;2022-07-10T00:22:42;172.77;;;68.47;;
13083;SDS011;6608;48.790;9.198;2022-07-10T00:25:09;173.13;;;69.73;;
13083;SDS011;6608;48.790;9.198;2022-07-10T00:27:37;174.87;;;67.97;;
13083;SDS011;6608;48.790;9.198;2022-07-10T00:30:04;171.60;;;67.47;;
13083;SDS011;6608;48.790;9.198;2022-07-10T00:32:31;172.10;;;67.73;;
13083;SDS011;6608;48.790;9.198;2022-07-10T00:34:58;173.63;;;68.20;;
13083;SDS011;6608;48.790;9.198;2022-07-10T00:37:24;172.63;;;68.83;;
13083;SDS011;6608;48.790;9.198;2022-07-10T00:39:51;173.17;;;69.10;;
13083;SDS011;6608;48.790;9.198;2022-07-10T00:42:17;170.23;;;67.87;;
13083;SDS011;6608;48.790;9.198;2022-07-10T00:44:45;172.27;;;67.93;;
13083;SDS011;6608;48.790;9.198;2022-07-10T00:47:11;171.23;;;67.70;;
13083;SDS011;6608;48.790;9.198;2022-07-10T00:49:39;172.03;;;67.87;;
13083;SDS011;6608;48.790;9.198;2022-07-10T00:52:06;175.07;;;68.60;;
13083;SDS011;6608;48.790;9.198;2022-07-10T00:54:33;172.23;;;66.83;;
13083;SDS011;6608;48.790;9.198;2022-07-10T00:57:00;169.57;;;67.23;;
13083;SDS011;6608;48.790;9.198;2022-07-10T00:59:27;170.57;;;67.63;;
13083;SDS011;6608;48.790;9.198;2022-07-10T01:01:55;171.63;;;67.83;;
13083;SDS011;6608;48.790;9.198;2022-07-10T01:04:22;173.33;;;67.37;;
13083;SDS011;6608;48.790;9.198;2022-07-10T01:06:48;170.27;;;67.20;;
13083;SDS011;6608;48.790;9.198;2022-07-10T01:09:14;172.57;;;68.00;;
13083;SDS011;6608;48.790;9.198;2022-07-10T01:11:41;170.33;;;66.87;;
13083;SDS011;6608;48.790;9.198;2022-07-10T01:14:07;171.93;;;67.57;;
13083;SDS011;6608;48.790;9.198;2022-07-10T01:16:34;171.07;;;67.20;;
13083;SDS011;6608;48.790;9.198;2022-07-10T01:19:02;171.30;;;67.40;;
13083;SDS011;6608;48.790;9.198;2022-07-10T01:21:30;169.67;;;67.47;;
13083;SDS011;6608;48.790;9.198;2022-07-10T01:23:57;171.07;;;67.13;;
13083;SDS011;6608;48.790;9.198;2022-07-10T01:26:23;171.23;;;67.90;;
13083;SDS011;6608;48.790;9.198;2022-07-10T01:28:51;170.70;;;67.63;;
13083;SDS011;6608;48.790;9.198;2022-07-10T01:31:18;169.80;;;67.17;;
13083;SDS011;6608;48.790;9.198;2022-07-10T01:33:44;173.23;;;68.03;;
13083;SDS011;6608;48.790;9.198;2022-07-10T01:36:11;172.60;;;67.83;;
13083;SDS011;6608;48.790;9.198;2022-07-10T01:38:39;170.37;;;67.20;;
13083;SDS011;6608;48.790;9.198;2022-07-10T01:41:05;170.60;;;67.17;;
13083;SDS011;6608;48.790;9.198;2022-07-10T01:43:33;170.47;;;67.50;;
13083;SDS011;6608;48.790;9.198;2022-07-10T01:45:59;171.63;;;67.67;;
13083;SDS011;6608;48.790;9.198;2022-07-10T01:48:26;171.03;;;67.37;;
13083;SDS011;6608;48.790;9.198;2022-07-10T01:50:52;170.43;;;67.50;;
13083;SDS011;6608;48.790;9.198;2022-07-10T01:53:19;173.37;;;68.37;;
13083;SDS011;6608;48.790;9.198;2022-07-10T01:55:46;172.73;;;68.33;;
13083;SDS011;6608;48.790;9.198;2022-07-10T01:58:13;171.20;;;67.27;;
13083;SDS011;6608;48.790;9.198;2022-07-10T02:00:39;172.20;;;68.73;;
13083;SDS011;6608;48.790;9.198;2022-07-10T02:03:06;175.07;;;66.87;;
13083;SDS011;6608;48.790;9.198;2022-07-10T02:05:49;170.03;;;67.97;;
13083;SDS011;6608;48.790;9.198;2022-07-10T02:08:16;174.20;;;67.10;;
13083;SDS011;6608;48.790;9.198;2022-07-10T02:10:42;173.43;;;67.73;;
13083;SDS011;6608;48.790;9.198;2022-07-10T02:13:11;173.23;;;67.77;;
13083;SDS011;6608;48.790;9.198;2022-07-10T02:15:39;175.97;;;68.10;;
13083;SDS011;6608;48.790;9.198;2022-07-10T02:18:06;171.00;;;67.33;;
13083;SDS011;6608;48.790;9.198;2022-07-10T02:20:33;170.50;;;67.60;;
13083;SDS011;6608;48.790;9.198;2022-07-10T02:23:00;171.33;;;68.37;;
13083;SDS011;6608;48.790;9.198;2022-07-10T02:25:26;173.87;;;68.30;;
13083;SDS011;6608;48.790;9.198;2022-07-10T02:27:53;175.57;;;68.30;;
13083;SDS011;6608;48.790;9.198;2022-07-10T02:30:21;173.87;;;70.67;;
13083;SDS011;6608;48.790;9.198;2022-07-10T02:32:47;174.70;;;70.03;;
13083;SDS011;6608;48.790;9.198;2022-07-10T02:35:14;175.33;;;70.50;;
13083;SDS011;6608;48.790;9.198;2022-07-10T02:37:40;177.33;;;70.73;;
13083;SDS011;6608;48.790;9.198;2022-07-10T02:40:07;174.93;;;71.60;;
13083;SDS011;6608;48.790;9.198;2022-07-10T02:42:34;179.07;;;71.20;;
13083;SDS011;6608;48.790;9.198;2022-07-10T02:45:00;176.53;;;71.13;;
13083;SDS011;6608;48.790;9.198;2022-07-10T02:47:28;177.40;;;71.43;;
13083;SDS011;6608;48.790;9.198;2022-07-10T02:49:55;177.60;;;71.60;;
13083;SDS011;6608;48.790;9.198;2022-07-10T02:52:21;177.50;;;71.47;;
13083;SDS011;6608;48.790;9.198;2022-07-10T02:54:48;177.53;;;72.90;;
13083;SDS011;6608;48.790;9.198;2022-07-10T02:57:15;175.50;;;72.20;;
13083;SDS011;6608;48.790;9.198;2022-07-10T02:59:42;175.23;;;72.70;;
13083;SDS011;6608;48.790;9.198;2022-07-10T03:02:08;177.07;;;71.93;;
13083;SDS011;6608;48.790;9.198;2022-07-10T03:04:36;178.67;;;72.60;;
13083;SDS011;6608;48.790;9.198;2022-07-10T03:07:04;174.43;;;71.60;;
13083;SDS011;6608;48.790;9.198;2022-07-10T03:09:30;176.67;;;71.93;;
13083;SDS011;6608;48.790;9.198;2022-07-10T03:11:57;176.53;;;71.60;;
13083;SDS011;6608;48.790;9.198;2022-07-10T03:14:23;176.57;;;71.63;;
13083;SDS011;6608;48.790;9.198;2022-07-10T03:16:50;175.60;;;70.77;;
13083;SDS011;6608;48.790;9.198;2022-07-10T03:19:16;176.20;;;71.77;;
13083;SDS011;6608;48.790;9.198;2022-07-10T03:21:44;177.87;;;72.33;;
13083;SDS011;6608;48.790;9.198;2022-07-10T03:24:10;177.03;;;71.90;;
13083;SDS011;6608;48.790;9.198;2022-07-10T03:26:37;177.33;;;72.17;;
13083;SDS011;6608;48.790;9.198;2022-07-10T03:29:03;174.47;;;71.00;;
13083;SDS011;6608;48.790;9.198;2022-07-10T03:31:30;178.53;;;71.83;;
13083;SDS011;6608;48.790;9.198;2022-07-10T03:33:56;176.17;;;71.40;;
13083;SDS011;6608;48.790;9.198;2022-07-10T03:36:23;175.73;;;71.20;;
13083;SDS011;6608;48.790;9.198;2022-07-10T03:38:51;174.00;;;71.47;;
13083;SDS011;6608;48.790;9.198;2022-07-10T03:41:17;173.07;;;70.60;;
13083;SDS011;6608;48.790;9.198;2022-07-10T03:43:44;177.07;;;71.47;;
13083;SDS011;6608;48.790;9.198;2022-07-10T03:46:10;179.37;;;73.60;;
13083;SDS011;6608;48.790;9.198;2022-07-10T03:48:36;176.00;;;71.50;;
13083;SDS011;6608;48.790;9.198;2022-07-10T03:51:03;174.63;;;72.30;;
13083;SDS011;6608;48.790;9.198;2022-07-10T03:53:30;177.37;;;71.47;;
13083;SDS011;6608;48.790;9.198;2022-07-10T03:55:57;173.50;;;70.10;;
13083;SDS011;6608;48.790;9.198;2022-07-10T03:58:25;175.27;;;70.30;;
13083;SDS011;6608;48.790;9.198;2022-07-10T04:00:50;174.57;;;70.50;;
13083;SDS011;6608;48.790;9.198;2022-07-10T04:03:17;173.57;;;71.57;;
13083;SDS011;6608;48.790;9.198;2022-07-10T04:05:43;174.60;;;70.90;;
13083;SDS011;6608;48.790;9.198;2022-07-10T04:08:10;177.57;;;71.23;;
13083;SDS011;6608;48.790;9.198;2022-07-10T04:10:36;175.00;;;70.33;;
13083;SDS011;6608;48.790;9.198;2022-07-10T04:13:04;174.90;;;70.83;;
13083;SDS011;6608;48.790;9.198;2022-07-10T04:15:31;173.50;;;70.50;;
13083;SDS011;6608;48.790;9.198;2022-07-10T04:17:57;172.27;;;69.23;;
13083;SDS011;6608;48.790;9.198;2022-07-10T04:20:24;175.93;;;71.03;;
13083;SDS011;6608;48.790;9.198;2022-07-10T04:22:50;174.43;;;71.07;;
13083;SDS011;6608;48.790;9.198;2022-07-10T04:25:17;177.83;;;69.90;;
13083;SDS011;6608;48.790;9.198;2022-07-10T04:27:43;176.30;;;70.40;;
13083;SDS011;6608;48.790;9.198;2022-07-10T04:30:11;178.80;;;69.87;;
13083;SDS011;6608;48.790;9.198;2022-07-10T04:32:38;173.40;;;70.30;;
13083;SDS011;6608;48.790;9.198;2022-07-10T04:35:04;175.27;;;70.70;;
13083;SDS011;6608;48.790;9.198;2022-07-10T04:37:31;172.80;;;69.47;;
13083;SDS011;6608;48.790;9.198;2022-07-10T04:39:59;178.30;;;69.90;;
13083;SDS011;6608;48.790;9.198;2022-07-10T04:42:26;173.57;;;69.17;;
13083;SDS011;6608;48.790;9.198;2022-07-10T04:44:52;175.40;;;69.43;;
13083;SDS011;6608;48.790;9.198;2022-07-10T04:47:20;169.87;;;67.77;;
13083;SDS011;6608;48.790;9.198;2022-07-10T04:49:47;173.33;;;68.70;;
13083;SDS011;6608;48.790;9.198;2022-07-10T04:52:13;173.97;;;68.27;;
13083;SDS011;6608;48.790;9.198;2022-07-10T04:54:40;171.87;;;68.27;;
13083;SDS011;6608;48.790;9.198;2022-07-10T04:57:06;171.70;;;67.70;;
13083;SDS011;6608;48.790;9.198;2022-07-10T04:59:33;170.37;;;67.77;;
13083;SDS011;6608;48.790;9.198;2022-07-10T05:02:00;172.13;;;68.43;;
13083;SDS011;6608;48.790;9.198;2022-07-10T05:04:28;175.77;;;68.67;;
13083;SDS011;6608;48.790;9.198;2022-07-10T05:06:55;176.03;;;68.73;;
13083;SDS011;6608;48.790;9.198;2022-07-10T05:09:21;175.03;;;68.70;;
13083;SDS011;6608;48.790;9.198;2022-07-10T05:11:47;171.53;;;69.23;;
13083;SDS011;6608;48.790;9.198;2022-07-10T05:14:14;175.43;;;69.70;;
13083;SDS011;6608;48.790;9.198;2022-07-10T05:16:41;172.87;;;69.40;;
13083;SDS011;6608;48.790;9.198;2022-07-10T05:19:07;173.60;;;68.97;;
13083;SDS011;6608;48.790;9.198;2022-07-10T05:21:35;170.20;;;68.33;;
13083;SDS011;6608;48.790;9.198;2022-07-10T05:24:02;172.63;;;69.97;;
13083;SDS011;6608;48.790;9.198;2022-07-10T05:26:28;171.00;;;67.27;;
13083;SDS011;6608;48.790;9.198;2022-07-10T05:28:55;170.33;;;67.20;;
13083;SDS011;6608;48.790;9.198;2022-07-10T05:31:21;172.37;;;66.97;;
13083;SDS011;6608;48.790;9.198;2022-07-10T05:33:47;173.70;;;67.63;;
13083;SDS011;6608;48.790;9.198;2022-07-10T05:36:14;168.80;;;66.27;;
13083;SDS011;6608;48.790;9.198;2022-07-10T05:38:42;170.60;;;66.73;;
13083;SDS011;6608;48.790;9.198;2022-07-10T05:41:08;170.73;;;66.07;;
13083;SDS011;6608;48.790;9.198;2022-07-10T05:43:35;169.23;;;66.00;;
13083;SDS011;6608;48.790;9.198;2022-07-10T05:46:01;170.47;;;66.50;;
13083;SDS011;6608;48.790;9.198;2022-07-10T05:48:28;167.67;;;65.37;;
13083;SDS011;6608;48.790;9.198;2022-07-10T05:50:54;171.57;;;65.50;;
13083;SDS011;6608;48.790;9.198;2022-07-10T05:53:21;171.47;;;66.67;;
13083;SDS011;6608;48.790;9.198;2022-07-10T05:55:49;167.80;;;65.73;;
13083;SDS011;6608;48.790;9.198;2022-07-10T05:58:15;171.50;;;66.30;;
13083;SDS011;6608;48.790;9.198;2022-07-10T06:00:42;168.87;;;65.90;;
13083;SDS011;6608;48.790;9.198;2022-07-10T06:03:09;170.27;;;65.33;;
13083;SDS011;6608;48.790;9.198;2022-07-10T06:05:36;171.03;;;65.77;;
13083;SDS011;6608;48.790;9.198;2022-07-10T06:08:03;171.20;;;65.63;;
13083;SDS011;6608;48.790;9.198;2022-07-10T06:10:29;171.13;;;65.73;;
13083;SDS011;6608;48.790;9.198;2022-07-10T06:12:57;170.23;;;65.30;;
13083;SDS011;6608;48.790;9.198;2022-07-10T06:15:24;169.43;;;65.43;;
13083;SDS011;6608;48.790;9.198;2022-07-10T06:17:50;168.30;;;65.17;;
13083;SDS011;6608;48.790;9.198;2022-07-10T06:20:17;173.33;;;66.53;;
13083;SDS011;6608;48.790;9.198;2022-07-10T06:22:43;171.20;;;65.70;;
13083;SDS011;6608;48.790;9.198;2022-07-10T06:25:10;168.77;;;65.67;;
13083;SDS011;6608;48.790;9.198;2022-07-10T06:27:37;169.87;;;66.00;;
13083;SDS011;6608;48.790;9.198;2022-07-10T06:30:05;168.00;;;64.87;;
13083;SDS011;6608;48.790;9.198;2022-07-10T06:32:32;168.83;;;65.57;;
13083;SDS011;6608;48.790;9.198;2022-07-10T06:34:58;169.67;;;65.20;;
13083;SDS011;6608;48.790;9.198;2022-07-10T06:37:25;172.23;;;68.13;;
13083;SDS011;6608;48.790;9.198;2022-07-10T06:39:51;166.80;;;64.83;;
13083;SDS011;6608;48.790;9.198;2022-07-10T06:42:18;169.57;;;65.97;;
13083;SDS011;6608;48.790;9.198;2022-07-10T06:44:45;169.57;;;66.53;;
13083;SDS011;6608;48.790;9.198;2022-07-10T06:47:13;170.33;;;64.63;;
13083;SDS011;6608;48.790;9.198;2022-07-10T06:49:57;171.23;;;65.97;;
13083;SDS011;6608;48.790;9.198;2022-07-10T06:52:23;170.13;;;65.27;;
13083;SDS011;6608;48.790;9.198;2022-07-10T06:54:50;168.77;;;65.80;;
13083;SDS011;6608;48.790;9.198;2022-07-10T06:57:16;166.93;;;65.10;;
13083;SDS011;6608;48.790;9.198;2022-07-10T06:59:44;167.90;;;65.10;;
13083;SDS011;6608;48.790;9.198;2022-07-10T07:02:11;172.53;;;66.77;;
13083;SDS011;6608;48.790;9.198;2022-07-10T07:04:39;171.67;;;65.57;;
13083;SDS011;6608;48.790;9.198;2022-07-10T07:07:05;169.37;;;67.33;;
13083;SDS011;6608;48.790;9.198;2022-07-10T07:09:31;168.27;;;65.53;;
13083;SDS011;6608;48.790;9.198;2022-07-10T07:11:58;169.83;;;65.83;;
13083;SDS011;6608;48.790;9.198;2022-07-10T07:14:24;172.20;;;67.13;;
13083;SDS011;6608;48.790;9.198;2022-07-10T07:16:51;168.93;;;65.63;;
13083;SDS011;6608;48.790;9.198;2022-07-10T07:19:25;172.60;;;66.40;;
13083;SDS011;6608;48.790;9.198;2022-07-10T07:21:59;171.17;;;65.63;;
13083;SDS011;6608;48.790;9.198;2022-07-10T07:24:43;170.77;;;65.53;;
13083;SDS011;6608;48.790;9.198;2022-07-10T07:27:09;170.90;;;65.83;;
13083;SDS011;6608;48.790;9.198;2022-07-10T07:29:38;172.53;;;65.27;;
13083;SDS011;6608;48.790;9.198;2022-07-10T07:32:05;170.57;;;65.87;;
13083;SDS011;6608;48.790;9.198;2022-07-10T07:34:31;171.40;;;64.93;;
13083;SDS011;6608;48.790;9.198;2022-07-10T07:36:59;168.73;;;64.80;;
13083;SDS011;6608;48.790;9.198;2022-07-10T07:39:26;172.47;;;65.17;;
13083;SDS011;6608;48.790;9.198;2022-07-10T07:41:52;169.87;;;64.60;;
13083;SDS011;6608;48.790;9.198;2022-07-10T07:44:18;168.40;;;66.27;;
13083;SDS011;6608;48.790;9.198;2022-07-10T07:46:45;168.87;;;64.67;;
13083;SDS011;6608;48.790;9.198;2022-07-10T07:49:11;169.33;;;64.93;;
13083;SDS011;6608;48.790;9.198;2022-07-10T07:51:38;170.33;;;64.77;;
13083;SDS011;6608;48.790;9.198;2022-07-10T07:54:06;169.53;;;65.17;;
13083;SDS011;6608;48.790;9.198;2022-07-10T07:56:32;169.53;;;65.50;;
13083;SDS011;6608;48.790;9.198;2022-07-10T07:58:58;168.43;;;64.60;;
13083;SDS011;6608;48.790;9.198;2022-07-10T08:01:25;167.83;;;64.73;;
13083;SDS011;6608;48.790;9.198;2022-07-10T08:03:51;169.13;;;65.20;;
13083;SDS011;6608;48.790;9.198;2022-07-10T08:06:18;170.17;;;65.33;;
13083;SDS011;6608;48.790;9.198;2022-07-10T08:08:45;171.57;;;64.80;;
13083;SDS011;6608;48.790;9.198;2022-07-10T08:11:13;168.47;;;64.70;;
13083;SDS011;6608;48.790;9.198;2022-07-10T08:13:39;171.30;;;65.40;;
13083;SDS011;6608;48.790;9.198;2022-07-10T08:16:06;169.03;;;65.77;;
13083;SDS011;6608;48.790;9.198;2022-07-10T08:18:32;167.23;;;64.80;;
13083;SDS011;6608;48.790;9.198;2022-07-10T08:20:59;170.53;;;65.73;;
13083;SDS011;6608;48.790;9.198;2022-07-10T08:23:25;170.80;;;66.37;;
13083;SDS011;6608;48.790;9.198;2022-07-10T08:25:52;171.20;;;65.67;;
13083;SDS011;6608;48.790;9.198;2022-07-10T08:28:19;170.57;;;65.93;;
13083;SDS011;6608;48.790;9.198;2022-07-10T08:30:46;175.33;;;66.30;;
13083;SDS011;6608;48.790;9.198;2022-07-10T08:33:12;176.30;;;67.30;;
13083;SDS011;6608;48.790;9.198;2022-07-10T08:35:39;171.43;;;65.57;;
13083;SDS011;6608;48.790;9.198;2022-07-10T08:38:07;173.93;;;66.53;;
13083;SDS011;6608;48.790;9.198;2022-07-10T08:40:34;172.47;;;66.60;;
13083;SDS011;6608;48.790;9.198;2022-07-10T08:43:01;173.20;;;66.70;;
13083;SDS011;6608;48.790;9.198;2022-07-10T08:45:29;175.27;;;67.20;;
13083;SDS011;6608;48.790;9.198;2022-07-10T08:47:57;172.10;;;66.77;;
13083;SDS011;6608;48.790;9.198;2022-07-10T08:50:26;170.93;;;66.17;;
13083;SDS011;6608;48.790;9.198;2022-07-10T08:52:56;173.20;;;66.17;;
13083;SDS011;6608;48.790;9.198;2022-07-10T08:55:25;176.93;;;67.63;;
13083;SDS011;6608;48.790;9.198;2022-07-10T08:57:51;172.17;;;66.93;;
13083;SDS011;6608;48.790;9.198;2022-07-10T09:00:20;171.70;;;65.97;;
13083;SDS011;6608;48.790;9.198;2022-07-10T09:02:48;174.50;;;67.13;;
13083;SDS011;6608;48.790;9.198;2022-07-10T09:05:14;170.63;;;66.70;;
13083;SDS011;6608;48.790;9.198;2022-07-10T09:07:41;173.83;;;68.97;;
13083;SDS011;6608;48.790;9.198;2022-07-10T09:10:09;173.40;;;66.33;;
13083;SDS011;6608;48.790;9.198;2022-07-10T09:12:49;172.77;;;66.67;;
13083;SDS011;6608;48.790;9.198;2022-07-10T09:15:16;173.87;;;66.30;;
13083;SDS011;6608;48.790;9.198;2022-07-10T09:17:50;174.53;;;66.73;;
13083;SDS011;6608;48.790;9.198;2022-07-10T09:20:23;170.47;;;65.93;;
13083;SDS011;6608;48.790;9.198;2022-07-10T09:22:50;172.20;;;67.37;;
13083;SDS011;6608;48.790;9.198;2022-07-10T09:25:17;174.03;;;67.37;;
13083;SDS011;6608;48.790;9.198;2022-07-10T09:27:50;174.60;;;67.83;;
13083;SDS011;6608;48.790;9.198;2022-07-10T09:30:22;173.13;;;67.13;;
13083;SDS011;6608;48.790;9.198;2022-07-10T09:33:03;175.93;;;67.90;;
13083;SDS011;6608;48.790;9.198;2022-07-10T09:35:53;174.30;;;67.17;;
13083;SDS011;6608;48.790;9.198;2022-07-10T09:38:50;172.93;;;66.77;;
13083;SDS011;6608;48.790;9.198;2022-07-10T09:41:19;170.77;;;66.40;;
13083;SDS011;6608;48.790;9.198;2022-07-10T09:43:46;173.53;;;66.57;;
13083;SDS011;6608;48.790;9.198;2022-07-10T09:46:13;173.53;;;67.47;;
13083;SDS011;6608;48.790;9.198;2022-07-10T09:48:41;175.43;;;67.20;;
13083;SDS011;6608;48.790;9.198;2022-07-10T09:51:08;176.53;;;68.13;;
13083;SDS011;6608;48.790;9.198;2022-07-10T09:53:36;174.47;;;68.03;;
13083;SDS011;6608;48.790;9.198;2022-07-10T09:56:04;173.13;;;67.70;;
13083;SDS011;6608;48.790;9.198;2022-07-10T09:58:32;175.20;;;68.10;;
13083;SDS011;6608;48.790;9.198;2022-07-10T10:01:00;175.00;;;67.33;;
13083;SDS011;6608;48.790;9.198;2022-07-10T10:03:27;175.33;;;68.67;;
13083;SDS011;6608;48.790;9.198;2022-07-10T10:06:00;174.43;;;67.93;;
13083;SDS011;6608;48.790;9.198;2022-07-10T10:08:28;175.30;;;68.10;;
13083;SDS011;6608;48.790;9.198;2022-07-10T10:10:56;174.83;;;67.57;;
13083;SDS011;6608;48.790;9.198;2022-07-10T10:13:23;174.67;;;68.37;;
13083;SDS011;6608;48.790;9.198;2022-07-10T10:15:51;172.97;;;67.30;;
13083;SDS011;6608;48.790;9.198;2022-07-10T10:18:17;173.00;;;66.90;;
13083;SDS011;6608;48.790;9.198;2022-07-10T10:20:44;175.83;;;67.00;;
13083;SDS011;6608;48.790;9.198;2022-07-10T10:23:13;175.17;;;67.07;;
13083;SDS011;6608;48.790;9.198;2022-07-10T10:25:40;172.57;;;67.67;;
13083;SDS011;6608;48.790;9.198;2022-07-10T10:28:08;175.00;;;68.53;;
13083;SDS011;6608;48.790;9.198;2022-07-10T10:30:36;177.30;;;68.20;;
13083;SDS011;6608;48.790;9.198;2022-07-10T10:33:03;175.47;;;69.60;;
13083;SDS011;6608;48.790;9.198;2022-07-10T10:35:41;176.07;;;68.87;;
13083;SDS011;6608;48.790;9.198;2022-07-10T10:38:07;174.60;;;69.13;;
13083;SDS011;6608;48.790;9.198;2022-07-10T10:40:36;173.70;;;68.20;;
13083;SDS011;6608;48.790;9.198;2022-07-10T10:45:44;175.47;;;69.13;;
13083;SDS011;6608;48.790;9.198;2022-07-10T10:48:13;175.20;;;68.57;;
13083;SDS011;6608;48.790;9.198;2022-07-10T10:50:40;178.20;;;68.70;;
13083;SDS011;6608;48.790;9.198;2022-07-10T10:53:14;178.53;;;69.03;;
13083;SDS011;6608;48.790;9.198;2022-07-10T10:55:42;176.17;;;67.23;;
13083;SDS011;6608;48.790;9.198;2022-07-10T10:58:35;176.50;;;70.87;;
13083;SDS011;6608;48.790;9.198;2022-07-10T11:01:02;176.53;;;68.30;;
13083;SDS011;6608;48.790;9.198;2022-07-10T11:03:29;174.40;;;68.53;;
13083;SDS011;6608;48.790;9.198;2022-07-10T11:05:55;172.07;;;67.43;;
13083;SDS011;6608;48.790;9.198;2022-07-10T11:08:38;174.67;;;69.43;;
13083;SDS011;6608;48.790;9.198;2022-07-10T11:13:51;173.03;;;67.27;;
13083;SDS011;6608;48.790;9.198;2022-07-10T11:16:23;172.83;;;67.07;;
13083;SDS011;6608;48.790;9.198;2022-07-10T11:18:51;175.03;;;67.17;;
13083;SDS011;6608;48.790;9.198;2022-07-10T11:21:21;173.43;;;67.17;;
13083;SDS011;6608;48.790;9.198;2022-07-10T11:23:51;171.83;;;67.13;;
13083;SDS011;6608;48.790;9.198;2022-07-10T11:26:23;174.83;;;67.23;;
13083;SDS011;6608;48.790;9.198;2022-07-10T11:28:52;171.90;;;67.17;;
13083;SDS011;6608;48.790;9.198;2022-07-10T11:31:19;173.97;;;66.83;;
13083;SDS011;6608;48.790;9.198;2022-07-10T11:33:46;174.93;;;66.83;;
13083;SDS011;6608;48.790;9.198;2022-07-10T11:36:14;172.03;;;66.80;;
13083;SDS011;6608;48.790;9.198;2022-07-10T11:38:41;172.87;;;67.63;;
13083;SDS011;6608;48.790;9.198;2022-07-10T11:41:17;172.87;;;67.97;;
13083;SDS011;6608;48.790;9.198;2022-07-10T11:43:47;174.50;;;67.50;;
13083;SDS011;6608;48.790;9.198;2022-07-10T11:46:15;173.43;;;67.90;;
13083;SDS011;6608;48.790;9.198;2022-07-10T11:48:41;174.83;;;68.40;;
13083;SDS011;6608;48.790;9.198;2022-07-10T11:51:18;172.87;;;68.23;;
13083;SDS011;6608;48.790;9.198;2022-07-10T11:53:58;176.23;;;67.60;;
13083;SDS011;6608;48.790;9.198;2022-07-10T11:56:25;173.47;;;68.50;;
13083;SDS011;6608;48.790;9.198;2022-07-10T11:58:58;174.10;;;68.70;;
13083;SDS011;6608;48.790;9.198;2022-07-10T12:01:26;173.73;;;67.83;;
13083;SDS011;6608;48.790;9.198;2022-07-10T12:03:57;173.17;;;68.17;;
13083;SDS011;6608;48.790;9.198;2022-07-10T12:06:23;178.70;;;68.60;;
13083;SDS011;6608;48.790;9.198;2022-07-10T12:08:50;173.93;;;68.47;;
13083;SDS011;6608;48.790;9.198;2022-07-10T12:11:17;175.03;;;68.60;;
13083;SDS011;6608;48.790;9.198;2022-07-10T12:13:44;174.37;;;68.77;;
13083;SDS011;6608;48.790;9.198;2022-07-10T12:16:11;172.97;;;68.47;;
13083;SDS011;6608;48.790;9.198;2022-07-10T12:18:39;175.53;;;69.00;;
13083;SDS011;6608;48.790;9.198;2022-07-10T12:24:09;176.03;;;68.60;;
13083;SDS011;6608;48.790;9.198;2022-07-10T12:26:36;173.77;;;68.13;;
13083;SDS011;6608;48.790;9.198;2022-07-10T12:29:03;175.50;;;68.37;;
13083;SDS011;6608;48.790;9.198;2022-07-10T12:31:30;175.07;;;67.90;;
13083;SDS011;6608;48.790;9.198;2022-07-10T12:33:59;171.70;;;67.50;;
13083;SDS011;6608;48.790;9.198;2022-07-10T12:36:40;172.17;;;67.43;;
13083;SDS011;6608;48.790;9.198;2022-07-10T12:39:07;172.73;;;68.00;;
13083;SDS011;6608;48.790;9.198;2022-07-10T12:41:34;175.27;;;68.17;;
13083;SDS011;6608;48.790;9.198;2022-07-10T12:44:00;176.40;;;68.97;;
13083;SDS011;6608;48.790;9.198;2022-07-10T12:46:27;174.10;;;68.77;;
13083;SDS011;6608;48.790;9.198;2022-07-10T12:49:05;174.33;;;69.17;;
13083;SDS011;6608;48.790;9.198;2022-07-10T12:51:32;173.10;;;67.80;;
13083;SDS011;6608;48.790;9.198;2022-07-10T12:53:59;173.73;;;67.90;;
13083;SDS011;6608;48.790;9.198;2022-07-10T12:56:29;175.70;;;69.70;;
13083;SDS011;6608;48.790;9.198;2022-07-10T12:58:56;174.47;;;69.53;;
13083;SDS011;6608;48.790;9.198;2022-07-10T13:01:22;175.90;;;68.37;;
13083;SDS011;6608;48.790;9.198;2022-07-10T13:03:48;174.93;;;68.97;;
13083;SDS011;6608;48.790;9.198;2022-07-10T13:06:26;173.70;;;68.03;;
13083;SDS011;6608;48.790;9.198;2022-07-10T13:08:53;176.53;;;70.07;;
13083;SDS011;6608;48.790;9.198;2022-07-10T13:11:20;178.00;;;68.13;;
13083;SDS011;6608;48.790;9.198;2022-07-10T13:13:46;174.90;;;69.50;;
13083;SDS011;6608;48.790;9.198;2022-07-10T13:16:13;174.23;;;67.67;;
13083;SDS011;6608;48.790;9.198;2022-07-10T13:18:41;175.23;;;67.67;;
13083;SDS011;6608;48.790;9.198;2022-07-10T13:21:07;173.37;;;67.97;;
13083;SDS011;6608;48.790;9.198;2022-07-10T13:23:37;172.83;;;67.30;;
13083;SDS011;6608;48.790;9.198;2022-07-10T13:26:04;172.53;;;68.00;;
13083;SDS011;6608;48.790;9.198;2022-07-10T13:28:32;173.57;;;68.63;;
13083;SDS011;6608;48.790;9.198;2022-07-10T13:30:58;173.43;;;68.70;;
13083;SDS011;6608;48.790;9.198;2022-07-10T13:33:25;172.07;;;67.83;;
13083;SDS011;6608;48.790;9.198;2022-07-10T13:35:52;175.30;;;70.57;;
13083;SDS011;6608;48.790;9.198;2022-07-10T13:38:19;172.43;;;67.67;;
13083;SDS011;6608;48.790;9.198;2022-07-10T13:40:47;174.43;;;67.97;;
13083;SDS011;6608;48.790;9.198;2022-07-10T13:43:13;175.00;;;67.50;;
13083;SDS011;6608;48.790;9.198;2022-07-10T13:45:41;172.97;;;68.23;;
13083;SDS011;6608;48.790;9.198;2022-07-10T13:48:09;177.93;;;69.87;;
13083;SDS011;6608;48.790;9.198;2022-07-10T13:50:36;173.00;;;67.63;;
13083;SDS011;6608;48.790;9.198;2022-07-10T13:53:03;179.70;;;67.63;;
13083;SDS011;6608;48.790;9.198;2022-07-10T13:55:29;172.37;;;67.87;;
13083;SDS011;6608;48.790;9.198;2022-07-10T13:57:57;174.07;;;67.97;;
13083;SDS011;6608;48.790;9.198;2022-07-10T14:00:24;175.57;;;68.57;;
13083;SDS011;6608;48.790;9.198;2022-07-10T14:02:51;175.90;;;68.83;;
13083;SDS011;6608;48.790;9.198;2022-07-10T14:05:20;175.00;;;68.23;;
13083;SDS011;6608;48.790;9.198;2022-07-10T14:07:47;172.07;;;67.23;;
13083;SDS011;6608;48.790;9.198;2022-07-10T14:10:13;173.63;;;67.37;;
13083;SDS011;6608;48.790;9.198;2022-07-10T14:12:40;175.10;;;68.03;;
13083;SDS011;6608;48.790;9.198;2022-07-10T14:15:08;171.53;;;67.20;;
13083;SDS011;6608;48.790;9.198;2022-07-10T14:17:35;170.90;;;66.97;;
13083;SDS011;6608;48.790;9.198;2022-07-10T14:20:01;172.27;;;67.33;;
13083;SDS011;6608;48.790;9.198;2022-07-10T14:22:28;171.90;;;68.27;;
13083;SDS011;6608;48.790;9.198;2022-07-10T14:24:55;170.57;;;67.00;;
13083;SDS011;6608;48.790;9.198;2022-07-10T14:27:22;171.60;;;67.57;;
13083;SDS011;6608;48.790;9.198;2022-07-10T14:29:49;175.67;;;67.97;;
13083;SDS011;6608;48.790;9.198;2022-07-10T14:32:17;171.93;;;67.87;;